createdAt,value
2018-07-14T00:03:16.528Z,4.50
2018-07-14T00:08:11.297Z,4.80
2018-07-14T00:13:06.293Z,4.57
2018-07-14T00:18:01.098Z,5.50
2018-07-14T00:22:55.804Z,5.20
2018-07-14T00:27:50.627Z,5.00
2018-07-14T00:32:45.382Z,5.70
2018-07-14T00:37:40.135Z,6.13
2018-07-14T00:42:34.967Z,4.87
2018-07-14T00:47:29.896Z,5.33
2018-07-14T00:52:24.696Z,5.07
2018-07-14T00:57:19.461Z,5.40
2018-07-14T01:02:14.232Z,5.60
2018-07-14T01:07:08.997Z,5.27
2018-07-14T01:12:03.633Z,5.33
2018-07-14T01:16:58.400Z,5.27
2018-07-14T01:21:53.091Z,4.57
2018-07-14T01:26:47.681Z,4.93
2018-07-14T01:31:42.614Z,4.63
2018-07-14T01:36:37.275Z,4.13
2018-07-14T01:41:32.047Z,4.17
2018-07-14T01:46:26.820Z,4.50
2018-07-14T01:51:21.727Z,5.10
2018-07-14T01:56:16.388Z,5.10
2018-07-14T02:01:11.437Z,5.07
2018-07-14T02:06:06.397Z,4.37
2018-07-14T02:11:01.029Z,5.23
2018-07-14T02:15:55.630Z,5.13
2018-07-14T02:20:50.247Z,4.90
2018-07-14T02:25:44.863Z,5.43
2018-07-14T02:30:39.460Z,5.37
2018-07-14T02:35:34.085Z,5.10
2018-07-14T02:40:28.737Z,4.73
2018-07-14T02:45:23.485Z,4.10
2018-07-14T02:50:18.407Z,5.03
2018-07-14T02:55:12.997Z,4.33
2018-07-14T03:00:07.697Z,4.77
2018-07-14T03:05:02.352Z,4.27
2018-07-14T03:09:57.008Z,4.80
2018-07-14T03:14:51.685Z,4.60
2018-07-14T03:19:46.321Z,4.17
2018-07-14T03:24:42.896Z,4.50
2018-07-14T03:29:37.504Z,5.00
2018-07-14T03:34:32.160Z,4.60
2018-07-14T03:39:26.800Z,4.63
2018-07-14T03:44:21.469Z,4.53
2018-07-14T03:49:16.083Z,4.80
2018-07-14T03:54:10.723Z,4.90
2018-07-14T03:59:05.859Z,4.67
2018-07-14T04:04:00.499Z,5.17
2018-07-14T04:08:55.204Z,5.27
2018-07-14T04:13:49.808Z,5.07
2018-07-14T04:18:44.537Z,4.97
2018-07-14T04:23:39.176Z,4.87
2018-07-14T04:28:33.800Z,4.97
2018-07-14T04:33:28.485Z,5.53
2018-07-14T04:38:23.108Z,5.07
2018-07-14T04:43:17.915Z,5.07
2018-07-14T04:48:12.536Z,6.40
2018-07-14T04:53:07.292Z,6.10
2018-07-14T04:58:01.933Z,5.87
2018-07-14T05:02:56.592Z,5.90
2018-07-14T05:07:51.264Z,5.30
2018-07-14T05:12:45.874Z,6.10
2018-07-14T05:17:40.481Z,5.90
2018-07-14T05:22:35.372Z,5.53
2018-07-14T05:27:30.001Z,5.90
2018-07-14T05:32:24.596Z,6.30
2018-07-14T05:37:19.357Z,5.57
2018-07-14T05:42:14.060Z,6.37
2018-07-14T05:47:09.045Z,6.00
2018-07-14T05:52:03.777Z,5.90
2018-07-14T05:56:58.540Z,6.50
2018-07-14T06:01:53.298Z,5.93
2018-07-14T06:06:47.935Z,6.50
2018-07-14T06:11:42.768Z,5.13
2018-07-14T06:16:37.412Z,5.63
2018-07-14T06:21:32.148Z,6.33
2018-07-14T06:26:26.801Z,5.93
2018-07-14T06:31:21.509Z,4.70
2018-07-14T06:36:16.207Z,5.62
2018-07-14T06:41:10.882Z,4.85
2018-07-14T06:46:05.791Z,4.78
2018-07-14T06:51:00.608Z,5.30
2018-07-14T06:55:59.062Z,5.12
2018-07-14T07:00:54.407Z,5.10
2018-07-14T07:05:49.017Z,5.50
2018-07-14T07:10:43.636Z,5.75
2018-07-14T07:15:38.245Z,5.47
2018-07-14T07:20:32.852Z,5.30
2018-07-14T07:25:27.455Z,5.80
2018-07-14T07:30:22.193Z,6.40
2018-07-14T07:35:28.226Z,6.25
2018-07-14T07:40:22.967Z,5.25
2018-07-14T07:45:19.270Z,6.42
2018-07-14T07:50:15.822Z,6.00
2018-07-14T07:55:10.569Z,6.03
2018-07-14T08:00:11.833Z,5.55
2018-07-14T08:05:08.656Z,5.62
2018-07-14T08:10:07.405Z,5.45
2018-07-14T08:15:02.032Z,5.47
2018-07-14T08:19:57.549Z,5.55
2018-07-14T08:24:52.331Z,5.00
2018-07-14T08:29:46.949Z,5.65
2018-07-14T08:34:41.676Z,5.37
2018-07-14T08:39:36.453Z,5.37
2018-07-14T08:44:31.071Z,5.00
2018-07-14T08:49:25.724Z,5.55
2018-07-14T08:54:20.334Z,5.30
2018-07-14T08:59:14.998Z,5.33
2018-07-14T09:04:10.185Z,5.28
2018-07-14T09:09:06.831Z,4.83
2018-07-14T09:14:01.461Z,5.08
2018-07-14T09:18:56.061Z,5.78
2018-07-14T09:23:50.734Z,5.22
2018-07-14T09:28:45.352Z,5.00
2018-07-14T09:33:39.978Z,5.20
2018-07-14T09:38:34.552Z,5.00
2018-07-14T09:43:29.163Z,5.03
2018-07-14T09:48:23.784Z,4.90
2018-07-14T09:53:19.010Z,4.70
2018-07-14T09:58:14.144Z,4.58
2018-07-14T10:03:08.795Z,4.47
2018-07-14T10:08:03.404Z,4.50
2018-07-14T10:12:58.036Z,4.33
2018-07-14T10:17:53.001Z,4.70
2018-07-14T10:22:47.598Z,4.50
2018-07-14T10:27:42.520Z,4.20
2018-07-14T10:32:37.136Z,3.65
2018-07-14T10:37:32.004Z,4.35
2018-07-14T10:42:26.883Z,4.28
2018-07-14T10:47:21.493Z,4.62
2018-07-14T10:52:16.522Z,4.17
2018-07-14T10:57:11.164Z,4.70
2018-07-14T11:02:05.464Z,4.78
2018-07-14T11:07:00.010Z,5.15
2018-07-14T11:11:54.684Z,4.75
2018-07-14T11:16:49.351Z,4.58
2018-07-14T11:21:44.044Z,4.83
2018-07-14T11:26:38.664Z,4.75
2018-07-14T11:31:33.314Z,4.37
2018-07-14T11:36:27.975Z,4.67
2018-07-14T11:41:22.563Z,4.00
2018-07-14T11:46:17.368Z,4.42
2018-07-14T11:51:12.015Z,4.72
2018-07-14T11:56:06.721Z,4.40
2018-07-14T12:01:01.357Z,4.40
2018-07-14T12:05:56.020Z,4.42
2018-07-14T12:10:50.625Z,4.10
2018-07-14T12:15:45.320Z,4.10
2018-07-14T12:20:40.251Z,3.90
2018-07-14T12:25:38.804Z,4.60
2018-07-14T12:30:33.574Z,4.22
2018-07-14T12:35:28.132Z,4.50
2018-07-14T12:40:23.058Z,4.20
2018-07-14T12:45:17.649Z,4.12
2018-07-14T12:50:11.974Z,3.52
2018-07-14T12:55:07.303Z,3.92
2018-07-14T13:00:02.104Z,3.65
2018-07-14T13:04:56.688Z,3.27
2018-07-14T13:09:50.986Z,3.90
2018-07-14T13:14:45.640Z,3.90
2018-07-14T13:19:40.233Z,3.50
2018-07-14T13:24:34.896Z,3.12
2018-07-14T13:29:29.766Z,3.37
2018-07-14T13:34:24.371Z,3.47
2018-07-14T13:39:19.094Z,3.15
2018-07-14T13:44:13.735Z,3.33
2018-07-14T13:49:08.625Z,3.47
2018-07-14T13:54:03.232Z,3.17
2018-07-14T13:58:57.951Z,3.20
2018-07-14T14:03:52.617Z,3.00
2018-07-14T14:08:47.302Z,3.60
2018-07-14T14:13:42.011Z,3.60
2018-07-14T14:18:36.617Z,3.30
2018-07-14T14:23:31.260Z,3.45
2018-07-14T14:28:25.957Z,3.33
2018-07-14T14:33:20.605Z,3.42
2018-07-14T14:38:15.216Z,3.10
2018-07-14T14:43:09.835Z,3.20
2018-07-14T14:48:04.524Z,3.02
2018-07-14T14:52:59.119Z,3.10
2018-07-14T14:57:53.789Z,2.83
2018-07-14T15:02:48.398Z,3.27
2018-07-14T15:07:43.112Z,3.02
2018-07-14T15:12:37.375Z,3.45
2018-07-14T15:17:32.377Z,3.10
2018-07-14T15:22:26.990Z,3.08
2018-07-14T15:27:22.607Z,3.20
2018-07-14T15:32:17.295Z,3.50
2018-07-14T15:37:11.917Z,3.17
2018-07-14T15:42:06.656Z,3.40
2018-07-14T15:47:01.283Z,3.17
2018-07-14T15:51:56.016Z,3.10
2018-07-14T15:56:50.604Z,3.22
2018-07-14T16:01:45.321Z,3.22
2018-07-14T16:06:40.017Z,3.27
2018-07-14T16:11:34.665Z,3.80
2018-07-14T16:16:29.356Z,3.30
2018-07-14T16:21:24.116Z,3.12
2018-07-14T16:26:18.765Z,3.08
2018-07-14T16:31:13.365Z,3.45
2018-07-14T16:36:08.975Z,3.05
2018-07-14T16:41:03.604Z,3.12
2018-07-14T16:45:58.307Z,2.90
2018-07-14T16:50:52.969Z,3.15
2018-07-14T16:55:47.551Z,3.20
2018-07-14T17:00:42.269Z,3.25
2018-07-14T17:05:36.857Z,3.25
2018-07-14T17:10:31.505Z,3.45
2018-07-14T17:15:26.130Z,3.65
2018-07-14T17:20:20.779Z,3.35
2018-07-14T17:25:15.419Z,3.50
2018-07-14T17:30:10.208Z,3.20
2018-07-14T17:35:04.903Z,3.50
2018-07-14T17:39:59.624Z,3.92
2018-07-14T17:44:54.237Z,3.42
2018-07-14T17:49:48.912Z,3.50
2018-07-14T17:54:43.500Z,3.67
2018-07-14T17:59:38.554Z,3.75
2018-07-14T18:04:33.172Z,3.37
2018-07-14T18:09:27.840Z,3.60
2018-07-14T18:14:22.460Z,3.72
2018-07-14T18:19:17.074Z,3.60
2018-07-14T18:24:11.708Z,3.60
2018-07-14T18:29:06.372Z,4.08
2018-07-14T18:34:00.972Z,4.03
2018-07-14T18:38:55.609Z,3.60
2018-07-14T18:43:50.364Z,4.70
2018-07-14T18:48:44.997Z,4.30
2018-07-14T18:53:39.705Z,4.00
2018-07-14T18:58:34.554Z,4.12
2018-07-14T19:03:29.232Z,4.33
2018-07-14T19:08:23.896Z,4.78
2018-07-14T19:13:18.528Z,4.80
2018-07-14T19:18:13.111Z,4.60
2018-07-14T19:23:07.780Z,4.17
2018-07-14T19:28:02.511Z,3.62
2018-07-14T19:32:57.176Z,4.17
2018-07-14T19:37:51.783Z,4.28
2018-07-14T19:42:46.511Z,4.03
2018-07-14T19:47:41.273Z,4.53
2018-07-14T19:52:35.912Z,4.65
2018-07-14T19:57:30.641Z,4.60
2018-07-14T20:02:25.321Z,4.80
2018-07-14T20:07:20.001Z,4.83
2018-07-14T20:12:14.814Z,4.42
2018-07-14T20:17:09.460Z,5.20
2018-07-14T20:22:04.153Z,4.80
2018-07-14T20:26:58.745Z,4.67
2018-07-14T20:31:53.592Z,4.35
2018-07-14T20:36:48.383Z,4.60
2018-07-14T20:41:43.300Z,4.92
2018-07-14T20:46:38.180Z,5.53
2018-07-14T20:51:32.823Z,5.15
2018-07-14T20:56:27.779Z,4.85
2018-07-14T21:01:22.428Z,5.22
2018-07-14T21:06:17.193Z,5.30
2018-07-14T21:11:11.836Z,5.20
2018-07-14T21:16:06.721Z,6.12
2018-07-14T21:21:01.636Z,6.62
2018-07-14T21:25:56.196Z,6.28
2018-07-14T21:30:51.263Z,6.12
2018-07-14T21:35:46.024Z,5.92
2018-07-14T21:40:41.317Z,7.20
2018-07-14T21:45:36.197Z,7.50
2018-07-14T21:50:30.955Z,8.95
2018-07-14T21:55:25.741Z,6.90
2018-07-14T22:00:34.994Z,6.87
2018-07-14T22:05:29.712Z,6.75
2018-07-14T22:10:24.580Z,6.22
2018-07-14T22:15:19.322Z,6.25
2018-07-14T22:20:14.043Z,5.87
2018-07-14T22:25:08.648Z,6.20
2018-07-14T22:30:03.544Z,5.87
2018-07-14T22:34:58.337Z,6.08
2018-07-14T22:39:53.075Z,6.05
2018-07-14T22:44:47.663Z,5.90
2018-07-14T22:49:42.369Z,5.75
2018-07-14T22:54:37.112Z,5.70
2018-07-14T22:59:31.786Z,5.50
2018-07-14T23:04:26.462Z,5.85
2018-07-14T23:09:21.320Z,5.78
2018-07-14T23:14:16.056Z,5.10
2018-07-14T23:19:10.638Z,5.72
2018-07-14T23:24:05.376Z,5.95
2018-07-14T23:29:00.082Z,5.67
2018-07-14T23:33:54.762Z,5.70
2018-07-14T23:38:49.425Z,5.28
2018-07-14T23:43:44.251Z,5.87
2018-07-14T23:48:39.121Z,5.40
2018-07-14T23:53:33.780Z,5.60
2018-07-14T23:58:28.319Z,5.83
